Time;durP1;ratioP1;P1;durP2;ratioP2;P2;SDS_P1;SDS_P2;PMS_P1;PMS_P2;Temp;Humidity;BMP_temperature;BMP_pressure;BME280_temperature;BME280_humidity;BME280_pressure;Samples;Min_cycle;Max_cycle;Signal;HPM_P1;HPM_P2
2023/08/01 00:02:15;;;;;;;5.18;3.45;;;;;;;17.09;89.70;99626.63;7396399;19;20010;-67
2023/08/01 00:04:46;;;;;;;5.15;2.83;;;;;;;17.01;90.61;99614.81;7395594;19;20070;-67
2023/08/01 00:07:15;;;;;;;5.53;3.10;;;;;;;16.92;90.78;99614.50;7395147;19;20098;-67
2023/08/01 00:09:43;;;;;;;8.82;3.13;;;;;;;16.85;90.45;99618.47;7396114;19;20011;-67
2023/08/01 00:12:11;;;;;;;8.45;3.58;;;;;;;16.77;92.09;99604.91;7395967;19;20019;-67
2023/08/01 00:14:40;;;;;;;7.65;4.07;;;;;;;16.71;91.09;99603.50;7396054;19;20030;-67
2023/08/01 00:17:08;;;;;;;5.70;4.03;;;;;;;16.66;92.24;99592.34;7394376;19;20482;-67
2023/08/01 00:19:37;;;;;;;8.30;4.07;;;;;;;16.62;92.28;99585.56;7395553;19;20549;-66
2023/08/01 00:22:08;;;;;;;6.20;4.10;;;;;;;16.59;94.37;99583.97;7395542;19;20078;-66
2023/08/01 00:24:37;;;;;;;6.72;3.78;;;;;;;16.56;93.38;99585.97;7395554;19;20011;-67
2023/08/01 00:27:09;;;;;;;5.35;3.70;;;;;;;16.53;94.10;99580.84;7393824;19;20035;-66
2023/08/01 00:29:37;;;;;;;6.53;4.28;;;;;;;16.50;94.29;99570.47;7395335;19;20029;-66
2023/08/01 00:32:07;;;;;;;7.18;3.78;;;;;;;16.46;94.90;99572.47;7395474;19;20063;-67
2023/08/01 00:34:35;;;;;;;6.93;4.40;;;;;;;16.44;95.55;99563.75;7394638;19;20035;-66
2023/08/01 00:37:04;;;;;;;10.63;4.32;;;;;;;16.42;95.75;99563.88;7393837;19;20027;-67
2023/08/01 00:39:35;;;;;;;6.68;4.75;;;;;;;16.42;95.78;99560.38;7394883;19;20416;-66
2023/08/01 00:42:03;;;;;;;7.43;4.28;;;;;;;16.38;95.79;99554.44;7395625;19;20086;-67
2023/08/01 00:44:32;;;;;;;8.93;4.82;;;;;;;16.37;96.01;99555.38;7394798;19;20375;-66
2023/08/01 00:47:00;;;;;;;7.22;4.53;;;;;;;16.36;96.26;99543.09;7394075;19;20010;-66
2023/08/01 00:49:29;;;;;;;7.75;4.30;;;;;;;16.35;95.80;99535.25;7394615;19;20418;-67
2023/08/01 00:51:57;;;;;;;8.38;4.53;;;;;;;16.33;96.82;99527.44;7393124;19;20022;-67
2023/08/01 00:54:26;;;;;;;6.75;4.38;;;;;;;16.33;96.87;99527.44;7394466;19;20553;-67
2023/08/01 00:56:57;;;;;;;8.35;4.95;;;;;;;16.31;97.83;99529.31;7393743;19;20063;-67
2023/08/01 00:59:25;;;;;;;7.07;4.75;;;;;;;16.29;97.33;99524.13;7394432;19;20512;-66
2023/08/01 01:01:54;;;;;;;8.52;4.70;;;;;;;16.31;98.25;99525.84;7396489;19;20018;-67
2023/08/01 01:04:22;;;;;;;8.00;4.68;;;;;;;16.31;98.97;99520.53;7401528;19;20073;-66
2023/08/01 01:06:55;;;;;;;6.22;4.70;;;;;;;16.30;98.39;99519.66;7400644;19;20019;-67
2023/08/01 01:09:24;;;;;;;7.05;4.70;;;;;;;16.31;99.01;99515.25;7402570;19;20022;-67
2023/08/01 01:11:52;;;;;;;7.70;4.80;;;;;;;16.31;99.23;99507.31;7402162;19;20448;-66
2023/08/01 01:14:23;;;;;;;8.43;4.53;;;;;;;16.31;99.42;99513.44;7399830;19;20028;-66
2023/08/01 01:16:51;;;;;;;9.80;5.07;;;;;;;16.32;99.64;99516.94;7400110;19;20537;-66
2023/08/01 01:19:20;;;;;;;8.60;5.35;;;;;;;16.32;100.00;99509.84;7401765;19;20014;-67
2023/08/01 01:21:52;;;;;;;8.82;4.57;;;;;;;16.32;100.00;99493.97;7401303;19;20010;-66
2023/08/01 01:24:23;;;;;;;10.38;4.47;;;;;;;16.33;100.00;99481.56;7398429;19;20387;-65
2023/08/01 01:26:53;;;;;;;7.57;5.43;;;;;;;16.32;100.00;99464.84;7398952;19;20022;-66
2023/08/01 01:29:23;;;;;;;11.43;4.90;;;;;;;16.33;100.00;99460.41;7401367;19;20027;-66
2023/08/01 01:31:52;;;;;;;7.40;5.00;;;;;;;16.34;100.00;99462.09;7401272;19;20085;-66
2023/08/01 01:34:21;;;;;;;7.82;4.75;;;;;;;16.33;100.00;99463.91;7400752;19;20074;-66
2023/08/01 01:36:52;;;;;;;10.68;5.18;;;;;;;16.35;100.00;99451.44;7398681;19;20078;-66
2023/08/01 01:39:20;;;;;;;8.75;5.22;;;;;;;16.35;100.00;99450.56;7400873;19;20534;-65
2023/08/01 01:41:49;;;;;;;14.07;4.82;;;;;;;16.37;100.00;99446.03;7401105;19;20018;-66
2023/08/01 01:44:17;;;;;;;8.88;5.22;;;;;;;16.38;100.00;99443.28;7398387;19;20090;-66
2023/08/01 01:46:46;;;;;;;6.65;4.82;;;;;;;16.39;100.00;99444.09;7399547;19;20066;-66
2023/08/01 01:49:14;;;;;;;7.68;4.93;;;;;;;16.37;100.00;99438.09;7398259;19;20018;-66
2023/08/01 01:51:43;;;;;;;6.30;4.60;;;;;;;16.37;100.00;99428.34;7400342;19;20074;-66
2023/08/01 01:54:14;;;;;;;7.82;4.28;;;;;;;16.36;100.00;99426.63;7400610;19;20035;-66
2023/08/01 01:56:42;;;;;;;7.43;5.07;;;;;;;16.36;100.00;99417.84;7399093;19;20082;-65
2023/08/01 01:59:11;;;;;;;7.65;4.78;;;;;;;16.35;100.00;99403.78;7397578;19;20540;-66
2023/08/01 02:01:39;;;;;;;9.52;5.53;;;;;;;16.36;100.00;99404.63;7400443;19;20073;-66
2023/08/01 02:04:07;;;;;;;7.65;4.72;;;;;;;16.38;100.00;99405.38;7399931;19;20090;-66
2023/08/01 02:06:36;;;;;;;7.28;4.80;;;;;;;16.38;100.00;99403.56;7397222;19;20431;-66
2023/08/01 02:09:04;;;;;;;8.52;5.05;;;;;;;16.39;100.00;99399.09;7400200;19;20091;-66
2023/08/01 02:11:35;;;;;;;8.73;4.60;;;;;;;16.41;100.00;99398.06;7399699;19;20016;-66
2023/08/01 02:14:04;;;;;;;8.23;4.80;;;;;;;16.41;100.00;99378.69;7396976;19;20011;-66
2023/08/01 02:16:32;;;;;;;8.75;4.65;;;;;;;16.43;100.00;99387.38;7398801;19;20018;-65
2023/08/01 02:19:01;;;;;;;8.85;4.72;;;;;;;16.42;100.00;99383.88;7399402;19;20028;-65
2023/08/01 02:21:29;;;;;;;6.90;4.65;;;;;;;16.42;100.00;99383.88;7397259;19;20432;-64
2023/08/01 02:23:58;;;;;;;10.15;5.03;;;;;;;16.42;100.00;99375.94;7399630;19;20010;-66
2023/08/01 02:26:26;;;;;;;8.48;4.57;;;;;;;16.39;100.00;99357.63;7396685;19;20020;-66
2023/08/01 02:28:57;;;;;;;10.77;4.60;;;;;;;16.42;100.00;99359.22;7399374;19;20087;-65
2023/08/01 02:31:26;;;;;;;6.90;5.07;;;;;;;16.42;100.00;99367.16;7398948;19;20505;-65
2023/08/01 02:33:54;;;;;;;9.40;4.80;;;;;;;16.40;100.00;99364.63;7399357;19;20079;-66
2023/08/01 02:36:29;;;;;;;8.98;4.47;;;;;;;16.40;100.00;99364.63;7397058;19;20019;-64
2023/08/01 02:38:57;;;;;;;7.30;4.50;;;;;;;16.38;100.00;99361.22;7399185;19;20014;-66
2023/08/01 02:44:30;;;;;;;8.48;5.47;;;;;;;16.37;100.00;99356.88;7392765;19;20398;-65
2023/08/01 02:46:59;;;;;;;8.38;4.53;;;;;;;16.37;100.00;99359.53;7392785;19;20552;-66
2023/08/01 02:49:27;;;;;;;7.32;4.10;;;;;;;16.36;100.00;99346.41;7399352;19;20015;-65
2023/08/01 02:51:56;;;;;;;7.18;4.25;;;;;;;16.36;100.00;99346.41;7398767;19;20014;-65
2023/08/01 02:54:24;;;;;;;13.05;4.75;;;;;;;16.36;100.00;99349.03;7398258;19;20014;-66
2023/08/01 02:56:53;;;;;;;7.47;4.15;;;;;;;16.35;100.00;99348.22;7396990;19;20481;-66
2023/08/01 02:59:21;;;;;;;9.23;4.63;;;;;;;16.35;100.00;99340.28;7398062;19;20465;-66
2023/08/01 03:01:52;;;;;;;5.88;4.10;;;;;;;16.36;100.00;99325.22;7398332;19;20031;-65
2023/08/01 03:04:21;;;;;;;6.93;4.22;;;;;;;16.36;100.00;99318.13;7398331;19;20086;-66
2023/08/01 03:06:49;;;;;;;7.00;3.90;;;;;;;16.36;100.00;99318.13;7395885;19;20486;-65
2023/08/01 03:09:18;;;;;;;7.38;4.22;;;;;;;16.35;100.00;99313.81;7398019;19;20039;-65
2023/08/01 03:11:46;;;;;;;10.93;4.07;;;;;;;16.36;100.00;99304.06;7395468;19;20070;-65
2023/08/01 03:14:15;;;;;;;8.68;4.18;;;;;;;16.36;100.00;99309.34;7397857;19;20018;-66
2023/08/01 03:16:43;;;;;;;7.82;4.07;;;;;;;16.35;100.00;99316.44;7396939;19;20011;-65
2023/08/01 03:19:14;;;;;;;9.23;4.50;;;;;;;16.33;100.00;99305.13;7397850;19;20014;-66
2023/08/01 03:21:43;;;;;;;8.95;4.70;;;;;;;16.35;100.00;99310.28;7398199;19;20011;-65
2023/08/01 03:24:11;;;;;;;6.93;4.15;;;;;;;16.34;100.00;99305.94;7394161;19;20011;-65
2023/08/01 03:26:40;;;;;;;6.40;4.35;;;;;;;16.32;100.00;99300.75;7395811;19;20025;-65
2023/08/01 03:29:08;;;;;;;6.90;4.13;;;;;;;16.32;100.00;99292.81;7398055;19;20066;-66
2023/08/01 03:31:37;;;;;;;5.60;4.35;;;;;;;16.31;100.00;99291.13;7397039;19;20507;-65
2023/08/01 03:34:08;;;;;;;7.53;3.90;;;;;;;16.32;100.00;99292.00;7397300;19;20010;-65
2023/08/01 03:36:39;;;;;;;6.43;3.90;;;;;;;16.29;100.00;99285.94;7394857;19;20019;-65
2023/08/01 03:39:09;;;;;;;5.68;4.13;;;;;;;16.31;100.00;99296.41;7397168;19;20518;-65
2023/08/01 03:41:38;;;;;;;7.95;4.43;;;;;;;16.31;100.00;99296.41;7396847;19;20034;-65
2023/08/01 03:44:07;;;;;;;6.25;3.97;;;;;;;16.33;100.00;99283.94;7396962;19;20031;-65
2023/08/01 03:46:35;;;;;;;6.40;4.13;;;;;;;16.33;100.00;99283.94;7395073;19;20014;-66
2023/08/01 03:49:03;;;;;;;7.03;4.38;;;;;;;16.34;100.00;99277.69;7394888;19;20430;-65
2023/08/01 03:51:32;;;;;;;6.20;3.83;;;;;;;16.36;100.00;99281.06;7397412;19;20015;-66
2023/08/01 03:54:03;;;;;;;5.93;4.25;;;;;;;16.37;99.92;99285.41;7396106;19;20422;-65
2023/08/01 03:56:32;;;;;;;8.05;4.45;;;;;;;16.34;100.00;99272.41;7396010;19;20046;-65
2023/08/01 03:59:00;;;;;;;7.75;4.00;;;;;;;16.37;100.00;99269.53;7395232;19;20010;-65
2023/08/01 04:01:28;;;;;;;6.95;4.43;;;;;;;16.38;100.00;99275.69;7396490;19;20082;-65
2023/08/01 04:03:57;;;;;;;8.65;4.53;;;;;;;16.39;99.94;99272.06;7395819;19;20010;-65
2023/08/01 04:06:25;;;;;;;10.18;4.07;;;;;;;16.39;100.00;99267.63;7394122;19;20427;-65
2023/08/01 04:08:56;;;;;;;7.53;4.05;;;;;;;16.42;100.00;99272.72;7396280;19;20435;-65
2023/08/01 04:11:27;;;;;;;6.20;4.00;;;;;;;16.42;99.76;99270.06;7396341;19;20015;-65
2023/08/01 04:13:55;;;;;;;6.13;4.05;;;;;;;16.43;99.83;99266.47;7396098;19;20049;-65
2023/08/01 04:16:24;;;;;;;6.28;4.00;;;;;;;16.45;99.88;99259.28;7394226;19;20074;-65
2023/08/01 04:18:53;;;;;;;7.93;3.60;;;;;;;16.47;99.86;99269.75;7395667;19;20028;-65
2023/08/01 04:21:21;;;;;;;6.28;4.13;;;;;;;16.47;99.89;99260.94;7395708;19;20002;-66
2023/08/01 04:23:50;;;;;;;6.03;3.95;;;;;;;16.50;99.59;99260.75;7395387;19;20039;-65
2023/08/01 04:26:18;;;;;;;7.05;3.50;;;;;;;16.50;99.73;99253.63;7394405;19;20015;-65
2023/08/01 04:28:51;;;;;;;7.30;4.10;;;;;;;16.54;99.95;99256.91;7395392;19;20043;-65
2023/08/01 04:31:19;;;;;;;7.38;3.65;;;;;;;16.55;99.40;99251.50;7395597;19;20003;-66
2023/08/01 04:33:48;;;;;;;7.05;3.67;;;;;;;16.57;99.46;99246.13;7394613;19;20478;-66
2023/08/01 04:36:23;;;;;;;6.85;3.42;;;;;;;16.57;99.28;99238.19;7392759;19;20112;-66
2023/08/01 04:38:51;;;;;;;4.68;3.40;;;;;;;16.60;99.22;99245.91;7395756;19;20024;-67
2023/08/01 04:41:19;;;;;;;8.05;4.10;;;;;;;16.62;99.39;99238.72;7394483;19;20014;-67
2023/08/01 04:43:50;;;;;;;6.35;3.47;;;;;;;16.64;99.06;99225.34;7393136;19;20023;-67
2023/08/01 04:46:19;;;;;;;6.10;3.72;;;;;;;16.66;99.09;99220.81;7394070;19;20024;-67
2023/08/01 04:48:47;;;;;;;3.67;2.83;;;;;;;16.67;99.29;99223.34;7394723;19;20043;-67
2023/08/01 04:51:16;;;;;;;6.40;3.47;;;;;;;16.68;99.68;99211.78;7394847;19;20027;-67
2023/08/01 04:53:44;;;;;;;5.40;3.17;;;;;;;16.67;99.53;99207.44;7394827;19;20363;-67
2023/08/01 04:56:13;;;;;;;5.93;3.25;;;;;;;16.66;99.46;99211.03;7394217;19;20015;-67
2023/08/01 04:58:41;;;;;;;4.97;3.60;;;;;;;16.66;99.30;99200.47;7392940;19;20011;-67
2023/08/01 05:01:12;;;;;;;5.47;3.78;;;;;;;16.63;99.80;99205.13;7394602;19;20018;-67
2023/08/01 05:03:41;;;;;;;4.43;3.33;;;;;;;16.61;100.00;99192.00;7394814;19;20027;-67
2023/08/01 05:06:09;;;;;;;6.13;3.70;;;;;;;16.59;100.00;99192.13;7394218;19;20454;-67
2023/08/01 05:08:38;;;;;;;5.70;3.42;;;;;;;16.59;100.00;99196.53;7394049;19;20393;-67
2023/08/01 05:11:06;;;;;;;6.05;3.35;;;;;;;16.57;100.00;99195.81;7392455;19;20063;-66
2023/08/01 05:13:34;;;;;;;5.30;3.53;;;;;;;16.56;100.00;99191.47;7391931;19;20014;-66
2023/08/01 05:16:03;;;;;;;5.18;3.05;;;;;;;16.55;100.00;99184.50;7392944;19;20477;-67
2023/08/01 05:18:34;;;;;;;4.28;3.03;;;;;;;16.52;100.00;99182.06;7394077;19;20028;-67
2023/08/01 05:21:03;;;;;;;6.32;3.47;;;;;;;16.51;100.00;99170.63;7393866;19;20015;-66
2023/08/01 05:23:31;;;;;;;7.68;3.65;;;;;;;16.49;100.00;99177.84;7392517;19;20476;-66
2023/08/01 05:26:00;;;;;;;5.18;3.33;;;;;;;16.46;100.00;99175.41;7392969;19;20030;-66
2023/08/01 05:28:28;;;;;;;4.10;3.50;;;;;;;16.41;100.00;99165.13;7393392;19;20529;-66
2023/08/01 05:30:56;;;;;;;5.40;4.10;;;;;;;16.41;100.00;99169.59;7393784;19;20019;-66
2023/08/01 05:33:25;;;;;;;4.85;3.85;;;;;;;16.37;100.00;99163.66;7393654;19;20031;-66
2023/08/01 05:35:56;;;;;;;6.38;3.47;;;;;;;16.36;100.00;99161.97;7392431;19;20018;-66
2023/08/01 05:38:24;;;;;;;4.57;3.67;;;;;;;16.34;100.00;99158.59;7391826;19;20016;-66
2023/08/01 05:40:53;;;;;;;4.78;3.78;;;;;;;16.33;100.00;99150.75;7390708;19;20387;-66
2023/08/01 05:43:21;;;;;;;8.50;5.03;;;;;;;16.31;100.00;99148.22;7393176;19;20018;-66
2023/08/01 05:45:50;;;;;;;6.18;3.67;;;;;;;16.32;100.00;99154.38;7392689;19;20018;-65
2023/08/01 05:48:18;;;;;;;5.10;3.60;;;;;;;16.32;100.00;99164.97;7395843;19;20066;-66
2023/08/01 05:50:47;;;;;;;11.35;3.88;;;;;;;16.31;100.00;99164.09;7400483;19;20014;-66
2023/08/01 05:53:18;;;;;;;7.32;3.58;;;;;;;16.32;100.00;99157.03;7400167;19;20007;-66
2023/08/01 05:55:46;;;;;;;6.32;3.85;;;;;;;16.34;100.00;99152.44;7399646;19;20006;-67
2023/08/01 05:58:15;;;;;;;4.28;3.50;;;;;;;16.34;100.00;99161.25;7397981;19;20031;-66
2023/08/01 06:00:43;;;;;;;6.18;4.10;;;;;;;16.36;100.00;99161.97;7400241;19;20043;-66
2023/08/01 06:03:12;;;;;;;6.57;3.63;;;;;;;16.37;100.00;99163.66;7397517;19;20014;-66
2023/08/01 06:05:40;;;;;;;4.78;3.70;;;;;;;16.38;100.00;99143.34;7399670;19;20019;-67
2023/08/01 06:08:10;;;;;;;4.95;3.67;;;;;;;16.39;100.00;99158.25;7396684;19;20477;-66
2023/08/01 06:10:41;;;;;;;6.93;3.80;;;;;;;16.39;100.00;99151.19;7399777;19;20014;-66
2023/08/01 06:13:09;;;;;;;6.85;3.55;;;;;;;16.40;100.00;99152.88;7400332;19;20018;-66
2023/08/01 06:15:38;;;;;;;4.65;3.67;;;;;;;16.42;100.00;99147.47;7399631;19;20078;-66
2023/08/01 06:18:06;;;;;;;7.25;3.72;;;;;;;16.42;100.00;99140.38;7399387;19;20481;-66
2023/08/01 06:20:35;;;;;;;4.68;3.13;;;;;;;16.44;100.00;99142.88;7398935;19;20015;-66
2023/08/01 06:23:03;;;;;;;4.13;3.03;;;;;;;16.45;100.00;99149.88;7398825;19;20489;-66
2023/08/01 06:25:32;;;;;;;5.07;3.05;;;;;;;16.47;100.00;99147.97;7399437;19;20015;-67
2023/08/01 06:28:03;;;;;;;4.93;2.92;;;;;;;16.49;100.00;99147.88;7396984;19;20078;-66
2023/08/01 06:30:31;;;;;;;5.68;3.50;;;;;;;16.52;100.00;99151.16;7400230;19;20006;-66
2023/08/01 06:33:00;;;;;;;7.15;3.70;;;;;;;16.54;100.00;99151.03;7398987;19;20014;-66
2023/08/01 06:35:42;;;;;;;5.97;3.17;;;;;;;16.55;100.00;99156.19;7395957;19;20613;-66
2023/08/01 06:38:10;;;;;;;5.40;3.35;;;;;;;16.59;100.00;99148.88;7398160;19;20108;-66
2023/08/01 06:40:38;;;;;;;5.57;3.97;;;;;;;16.61;100.00;99153.13;7398599;19;20014;-67
2023/08/01 06:43:09;;;;;;;5.82;3.40;;;;;;;16.61;100.00;99155.75;7398402;19;20023;-67
2023/08/01 06:45:38;;;;;;;4.70;3.20;;;;;;;16.66;100.00;99157.25;7399028;19;20066;-66
2023/08/01 06:48:08;;;;;;;3.60;3.03;;;;;;;16.68;100.00;99158.84;7396432;19;20014;-66
2023/08/01 06:50:36;;;;;;;5.25;3.33;;;;;;;16.71;100.00;99163.91;7398292;19;20024;-66
2023/08/01 06:53:05;;;;;;;6.10;3.58;;;;;;;16.72;100.00;99160.28;7398106;19;20380;-67
2023/08/01 06:55:33;;;;;;;6.78;4.07;;;;;;;16.74;100.00;99155.75;7398476;19;20019;-66
2023/08/01 06:58:01;;;;;;;4.72;3.30;;;;;;;16.76;100.00;99158.28;7395836;19;20477;-66
2023/08/01 07:00:32;;;;;;;6.68;3.00;;;;;;;16.77;100.00;99159.97;7395408;19;20019;-66
2023/08/01 07:03:01;;;;;;;4.65;3.17;;;;;;;16.81;100.00;99156.13;7397580;19;20477;-66
2023/08/01 07:05:29;;;;;;;4.85;2.80;;;;;;;16.84;100.00;99157.72;7397323;19;20370;-67
2023/08/01 07:07:58;;;;;;;6.68;3.75;;;;;;;16.87;100.00;99154.81;7395460;19;20027;-67
2023/08/01 07:10:26;;;;;;;6.15;3.97;;;;;;;16.89;100.00;99142.31;7397755;19;20014;-67
2023/08/01 07:12:55;;;;;;;4.32;3.10;;;;;;;16.92;100.00;99139.47;7397265;19;20493;-67
2023/08/01 07:15:23;;;;;;;7.28;3.10;;;;;;;16.96;100.00;99138.31;7396818;19;20078;-66
2023/08/01 07:17:54;;;;;;;6.20;3.55;;;;;;;17.00;100.00;99123.88;7395552;19;20018;-67
2023/08/01 07:20:23;;;;;;;5.40;3.15;;;;;;;17.05;100.00;99120.88;7397828;19;20101;-67
2023/08/01 07:22:51;;;;;;;5.95;3.20;;;;;;;17.10;100.00;99102.84;7396909;19;20100;-66
2023/08/01 07:25:20;;;;;;;4.13;3.28;;;;;;;17.16;100.00;99109.47;7397041;19;20014;-67
2023/08/01 07:27:49;;;;;;;5.90;3.40;;;;;;;17.21;100.00;99105.53;7395150;19;20498;-66
2023/08/01 07:30:17;;;;;;;6.38;2.85;;;;;;;17.29;100.00;99123.50;7397362;19;20045;-68
2023/08/01 07:32:47;;;;;;;3.85;2.88;;;;;;;17.36;100.00;99130.03;7396940;19;20019;-68
2023/08/01 07:35:18;;;;;;;4.15;2.17;;;;;;;17.42;100.00;99139.31;7396660;19;20018;-66
2023/08/01 07:37:47;;;;;;;2.72;2.00;;;;;;;17.50;100.00;99141.38;7394225;19;20018;-67
2023/08/01 07:40:15;;;;;;;3.92;2.35;;;;;;;17.54;100.00;99132.19;7396843;19;20073;-66
2023/08/01 07:42:43;;;;;;;4.65;3.00;;;;;;;17.58;100.00;99134.50;7396506;19;20018;-67
2023/08/01 07:45:12;;;;;;;4.75;2.35;;;;;;;17.62;99.69;99142.25;7396396;19;20031;-66
2023/08/01 07:47:41;;;;;;;4.65;2.22;;;;;;;17.67;100.00;99148.88;7395083;19;20086;-66
2023/08/01 07:50:10;;;;;;;2.38;2.08;;;;;;;17.71;98.80;99155.63;7396219;19;20007;-66
2023/08/01 07:52:41;;;;;;;3.47;2.05;;;;;;;17.76;99.25;99147.31;7396175;19;20003;-68
2023/08/01 07:55:10;;;;;;;3.17;2.28;;;;;;;17.83;99.16;99145.03;7395992;19;20547;-67
2023/08/01 07:57:38;;;;;;;5.10;2.13;;;;;;;17.89;99.12;99132.16;7394310;19;20473;-67
2023/08/01 08:00:09;;;;;;;3.45;2.13;;;;;;;17.98;99.30;99133.25;7394411;19;20010;-66
2023/08/01 08:02:37;;;;;;;3.10;2.28;;;;;;;18.06;98.44;99138.81;7394496;19;20082;-66
2023/08/01 08:05:07;;;;;;;3.95;2.00;;;;;;;18.18;97.81;99136.97;7396630;19;20018;-68
2023/08/01 08:07:35;;;;;;;4.95;2.50;;;;;;;18.27;97.72;99129.28;7393620;19;20018;-67
2023/08/01 08:10:07;;;;;;;2.45;1.70;;;;;;;18.36;96.04;99133.84;7395602;19;20035;-67
2023/08/01 08:12:36;;;;;;;2.33;1.70;;;;;;;18.45;96.22;99125.16;7394917;19;20014;-67
2023/08/01 08:15:04;;;;;;;1.90;1.42;;;;;;;18.58;95.48;99121.47;7393452;19;20061;-67
2023/08/01 08:17:33;;;;;;;1.88;1.23;;;;;;;18.67;95.55;99105.66;7394014;19;20035;-67
2023/08/01 08:20:01;;;;;;;2.28;1.50;;;;;;;18.79;94.27;99110.94;7395168;19;20010;-64
2023/08/01 08:22:30;;;;;;;1.60;1.17;;;;;;;18.90;93.98;99110.91;7392922;19;20011;-65
2023/08/01 08:24:58;;;;;;;2.17;1.63;;;;;;;19.04;93.46;99109.78;7394736;19;20017;-66
2023/08/01 08:27:29;;;;;;;2.03;1.60;;;;;;;19.18;92.80;99120.13;7393597;19;20014;-66
2023/08/01 08:29:58;;;;;;;2.28;1.40;;;;;;;19.30;91.06;99120.06;7395628;19;20078;-68
2023/08/01 08:32:26;;;;;;;2.15;1.30;;;;;;;19.38;89.48;99125.56;7394806;19;20415;-68
2023/08/01 08:34:55;;;;;;;1.60;1.23;;;;;;;19.48;90.24;99131.78;7394464;19;20027;-68
2023/08/01 08:37:23;;;;;;;2.20;1.10;;;;;;;19.55;88.95;99137.44;7393303;19;20018;-68
2023/08/01 08:39:51;;;;;;;1.58;0.90;;;;;;;19.56;88.98;99139.09;7395333;19;20038;-68
2023/08/01 08:42:21;;;;;;;1.92;1.15;;;;;;;19.56;88.37;99132.94;7395058;19;20078;-69
2023/08/01 08:44:57;;;;;;;1.20;1.02;;;;;;;19.57;88.01;99116.03;7393198;19;20018;-68
2023/08/01 08:47:28;;;;;;;1.85;0.90;;;;;;;19.56;84.92;99124.97;7393582;19;20014;-69
2023/08/01 08:49:59;;;;;;;1.15;0.90;;;;;;;19.58;86.39;99131.00;7393345;19;20032;-69
2023/08/01 08:52:29;;;;;;;1.00;0.90;;;;;;;19.56;84.47;99144.41;7393237;19;20006;-68
2023/08/01 08:54:59;;;;;;;2.20;0.80;;;;;;;19.58;85.95;99144.31;7392523;19;20011;-68
2023/08/01 08:57:28;;;;;;;1.75;1.00;;;;;;;19.50;81.93;99135.16;7392926;19;20031;-68
2023/08/01 08:59:59;;;;;;;1.15;0.65;;;;;;;19.49;83.96;99127.31;7393523;19;20473;-68
2023/08/01 09:02:29;;;;;;;1.88;1.00;;;;;;;19.51;84.45;99128.00;7394400;19;20102;-68
2023/08/01 09:04:57;;;;;;;1.38;0.90;;;;;;;19.56;84.09;99133.78;7393425;19;20011;-67
2023/08/01 09:07:28;;;;;;;1.48;0.80;;;;;;;19.54;81.63;99130.44;7391681;19;20098;-68
2023/08/01 09:09:56;;;;;;;3.40;1.10;;;;;;;19.57;82.91;99135.47;7392378;19;20011;-68
2023/08/01 09:12:25;;;;;;;1.77;1.15;;;;;;;19.60;83.56;99129.03;7392526;19;20014;-69
2023/08/01 09:14:55;;;;;;;1.35;0.75;;;;;;;19.64;83.14;99131.31;7393720;19;20030;-69
2023/08/01 09:18:00;;;;;;;1.88;0.85;;;;;;;19.69;81.69;99134.44;7391829;19;20015;-69
2023/08/01 09:20:29;;;;;;;1.17;0.93;;;;;;;19.76;82.91;99113.44;7394263;19;20049;-70
2023/08/01 09:22:58;;;;;;;0.85;0.60;;;;;;;19.82;82.10;99125.41;7394923;19;20031;-70
2023/08/01 09:25:34;;;;;;;1.85;0.60;;;;;;;19.86;79.83;99132.16;7400564;19;20384;-69
2023/08/01 09:28:03;;;;;;;0.77;0.68;;;;;;;19.89;81.81;99137.25;7397233;19;20016;-69
2023/08/01 09:30:31;;;;;;;1.52;0.77;;;;;;;19.95;81.83;99138.53;7400928;19;20078;-69
2023/08/01 09:33:02;;;;;;;2.15;0.75;;;;;;;20.04;80.75;99126.22;7400395;19;20014;-68
2023/08/01 09:35:41;;;;;;;1.27;0.77;;;;;;;20.15;77.61;99139.44;7397814;19;20026;-68
2023/08/01 09:38:17;;;;;;;1.40;0.70;;;;;;;20.27;78.47;99133.06;7397314;19;20015;-70
2023/08/01 09:40:47;;;;;;;1.25;0.70;;;;;;;20.35;79.36;99140.34;7400173;19;20014;-70
2023/08/01 09:43:16;;;;;;;1.70;1.38;;;;;;;20.45;79.55;99141.22;7400204;19;20011;-69
2023/08/01 09:45:54;;;;;;;0.90;0.60;;;;;;;20.48;74.79;99148.94;7399005;19;20502;-70
2023/08/01 09:48:31;;;;;;;0.80;0.60;;;;;;;20.38;71.77;99141.91;7398234;19;20511;-70
2023/08/01 09:51:10;;;;;;;0.90;0.70;;;;;;;20.33;74.14;99139.63;7399661;19;20485;-70
2023/08/01 09:53:49;;;;;;;1.00;0.60;;;;;;;20.25;74.31;99142.97;7399588;19;20022;-68
2023/08/01 09:56:20;;;;;;;6.80;0.70;;;;;;;20.22;75.48;99137.06;7399385;19;20021;-70
2023/08/01 09:58:49;;;;;;;1.00;0.50;;;;;;;20.19;77.59;99138.19;7399504;19;20010;-69
2023/08/01 10:01:19;;;;;;;1.25;0.90;;;;;;;20.15;76.82;99140.28;7399575;19;20022;-71
2023/08/01 10:03:51;;;;;;;1.65;0.55;;;;;;;19.99;75.08;99143.44;7398731;19;20516;-69
2023/08/01 10:06:21;;;;;;;3.47;0.40;;;;;;;19.93;76.96;99136.00;7395766;19;20021;-68
2023/08/01 10:08:51;;;;;;;1.30;0.85;;;;;;;19.88;77.47;99137.34;7397377;19;20014;-69
2023/08/01 10:11:21;;;;;;;5.72;2.08;;;;;;;19.83;75.55;99127.97;7399289;19;20010;-69
2023/08/01 10:13:50;;;;;;;1.45;1.00;;;;;;;19.83;77.65;99127.97;7398969;19;20343;-69
2023/08/01 10:16:19;;;;;;;1.77;0.32;;;;;;;19.86;76.35;99134.84;7399721;19;20469;-67
2023/08/01 10:18:51;;;;;;;0.50;0.30;;;;;;;19.90;75.88;99133.59;7399674;19;20011;-69
2023/08/01 10:21:20;;;;;;;1.65;0.70;;;;;;;19.91;76.36;99124.63;7397469;19;20010;-70
2023/08/01 10:23:50;;;;;;;2.20;0.95;;;;;;;19.83;73.89;99135.94;7398355;19;20427;-68
2023/08/01 10:26:19;;;;;;;0.60;0.40;;;;;;;19.80;75.72;99140.66;7397288;19;20411;-68
2023/08/01 10:28:53;;;;;;;0.63;0.40;;;;;;;19.78;75.17;99124.00;7397831;19;20039;-66
2023/08/01 10:31:23;;;;;;;1.50;0.25;;;;;;;19.85;77.04;99133.13;7396324;19;20073;-67
2023/08/01 10:33:54;;;;;;;0.85;0.50;;;;;;;19.91;76.47;99140.59;7397519;19;20007;-67
2023/08/01 10:36:31;;;;;;;1.00;0.30;;;;;;;19.92;75.84;99139.63;7396088;19;20018;-67
2023/08/01 10:39:02;;;;;;;0.82;0.30;;;;;;;19.88;75.27;99126.72;7396136;19;20010;-69
2023/08/01 10:41:32;;;;;;;0.38;0.20;;;;;;;19.80;75.49;99151.28;7398725;19;20337;-69
2023/08/01 10:44:11;;;;;;;0.75;0.32;;;;;;;19.72;74.08;99143.97;7397845;19;20011;-68
2023/08/01 10:46:50;;;;;;;2.42;0.70;;;;;;;19.73;75.37;99147.47;7397179;19;20018;-69
2023/08/01 10:49:23;;;;;;;0.40;0.20;;;;;;;19.64;74.57;99149.94;7395717;19;20371;-68
2023/08/01 10:51:52;;;;;;;1.67;0.40;;;;;;;19.60;76.45;99145.88;7398507;19;20019;-69
2023/08/01 10:54:25;;;;;;;0.45;0.35;;;;;;;19.42;75.44;99142.94;7397874;19;20030;-68
2023/08/01 10:56:54;;;;;;;0.80;0.13;;;;;;;19.37;77.82;99146.00;7397181;19;20026;-69
2023/08/01 10:59:24;;;;;;;1.27;0.90;;;;;;;19.29;78.75;99148.44;7398219;19;20035;-68
2023/08/01 11:01:54;;;;;;;1.33;0.52;;;;;;;19.17;79.47;99139.69;7395348;19;20074;-68
2023/08/01 11:04:26;;;;;;;5.50;4.65;;;;;;;19.09;80.75;99146.59;7398238;19;20086;-68
2023/08/01 11:06:56;;;;;;;3.42;2.03;;;;;;;19.00;81.61;99138.41;7395857;19;20019;-68
2023/08/01 11:09:26;;;;;;;1.30;0.88;;;;;;;18.89;82.32;99141.06;7395542;19;20015;-68
2023/08/01 11:11:56;;;;;;;3.63;1.25;;;;;;;18.75;83.99;99159.97;7397324;19;20011;-68
2023/08/01 11:14:25;;;;;;;2.47;0.35;;;;;;;18.62;86.17;99171.59;7396822;19;20143;-71
2023/08/01 11:16:56;;;;;;;1.02;0.47;;;;;;;18.38;88.07;99177.88;7394726;19;20078;-67
2023/08/01 11:19:28;;;;;;;2.42;0.50;;;;;;;18.02;90.97;99176.31;7397080;19;20074;-68
2023/08/01 11:21:59;;;;;;;2.60;0.40;;;;;;;17.71;92.25;99186.63;7396484;19;20011;-68
2023/08/01 11:24:29;;;;;;;3.60;0.60;;;;;;;17.49;94.86;99187.38;7396938;19;20361;-68
2023/08/01 11:26:57;;;;;;;1.50;0.70;;;;;;;17.25;96.78;99180.34;7395492;19;20027;-69
2023/08/01 11:29:26;;;;;;;2.33;0.90;;;;;;;17.12;98.18;99182.19;7394169;19;20396;-67
2023/08/01 11:31:56;;;;;;;1.25;0.88;;;;;;;17.06;98.42;99186.13;7396537;19;20014;-67
2023/08/01 11:34:28;;;;;;;2.95;1.42;;;;;;;17.07;99.08;99179.88;7396483;19;20037;-67
2023/08/01 11:36:56;;;;;;;3.80;1.20;;;;;;;17.13;100.00;99189.19;7394883;19;20028;-66
2023/08/01 11:39:25;;;;;;;1.52;0.90;;;;;;;17.09;100.00;99192.06;7396405;19;20014;-68
2023/08/01 11:41:54;;;;;;;2.72;1.15;;;;;;;17.07;100.00;99201.06;7393923;19;20011;-67
2023/08/01 11:44:26;;;;;;;1.30;1.00;;;;;;;17.09;100.00;99188.56;7395686;19;20473;-68